createdAt,value
2018-04-22T00:00:48.579Z,13.30
2018-04-22T00:03:17.802Z,13.30
2018-04-22T00:05:46.129Z,13.30
2018-04-22T00:08:14.570Z,13.50
2018-04-22T00:10:42.838Z,13.40
2018-04-22T00:13:11.870Z,13.50
2018-04-22T00:15:40.074Z,13.50
2018-04-22T00:18:09.154Z,13.50
2018-04-22T00:20:37.489Z,13.50
2018-04-22T00:23:05.978Z,13.50
2018-04-22T00:25:34.251Z,13.50
2018-04-22T00:28:02.535Z,13.40
2018-04-22T00:30:30.832Z,13.40
2018-04-22T00:32:59.188Z,13.40
2018-04-22T00:35:27.567Z,13.40
2018-04-22T00:37:55.807Z,13.40
2018-04-22T00:40:24.941Z,13.40
2018-04-22T00:42:53.153Z,13.40
2018-04-22T00:45:21.353Z,13.50
2018-04-22T00:47:50.740Z,13.60
2018-04-22T00:50:21.611Z,13.60
2018-04-22T00:52:50.690Z,13.50
2018-04-22T00:55:19.898Z,13.40
2018-04-22T00:57:49.087Z,13.30
2018-04-22T01:00:18.114Z,13.20
2018-04-22T01:02:47.334Z,13.20
2018-04-22T01:05:15.547Z,13.10
2018-04-22T01:07:44.539Z,12.90
2018-04-22T01:10:13.499Z,12.80
2018-04-22T01:12:41.684Z,12.80
2018-04-22T01:15:09.900Z,12.80
2018-04-22T01:17:38.156Z,12.80
2018-04-22T01:20:09.069Z,12.70
2018-04-22T01:22:38.831Z,12.70
2018-04-22T01:25:08.084Z,12.60
2018-04-22T01:27:37.154Z,12.60
2018-04-22T01:30:05.515Z,12.60
2018-04-22T01:32:33.844Z,12.60
2018-04-22T01:35:02.072Z,12.50
2018-04-22T01:37:30.342Z,12.60
2018-04-22T01:40:01.006Z,12.50
2018-04-22T01:42:29.270Z,12.40
2018-04-22T01:44:57.521Z,12.40
2018-04-22T01:47:26.633Z,12.40
2018-04-22T01:49:55.661Z,12.30
2018-04-22T01:52:23.957Z,12.30
2018-04-22T01:54:52.255Z,12.30
2018-04-22T01:57:20.570Z,12.30
2018-04-22T01:59:49.155Z,12.20
2018-04-22T02:02:17.380Z,12.20
2018-04-22T02:04:46.381Z,12.20
2018-04-22T02:07:14.783Z,12.20
2018-04-22T02:09:44.055Z,12.10
2018-04-22T02:12:12.320Z,12.10
2018-04-22T02:14:40.560Z,12.10
2018-04-22T02:17:09.669Z,12.10
2018-04-22T02:19:37.924Z,12.10
2018-04-22T02:22:07.128Z,12.10
2018-04-22T02:24:36.228Z,12.10
2018-04-22T02:27:04.529Z,12.00
2018-04-22T02:29:32.768Z,12.10
2018-04-22T02:32:01.143Z,12.00
2018-04-22T02:34:29.362Z,12.10
2018-04-22T02:36:57.675Z,12.10
2018-04-22T02:39:28.554Z,12.00
2018-04-22T02:41:57.607Z,12.10
2018-04-22T02:44:27.062Z,12.10
2018-04-22T02:46:56.083Z,12.00
2018-04-22T02:49:24.357Z,12.00
2018-04-22T02:51:53.373Z,12.10
2018-04-22T02:54:21.663Z,12.10
2018-04-22T02:56:51.054Z,12.20
2018-04-22T02:59:19.338Z,12.20
2018-04-22T03:01:47.616Z,12.30
2018-04-22T03:04:15.859Z,12.20
2018-04-22T03:06:44.845Z,12.20
2018-04-22T03:09:13.819Z,12.30
2018-04-22T03:11:42.857Z,12.20
2018-04-22T03:14:11.090Z,12.20
2018-04-22T03:16:39.672Z,12.20
2018-04-22T03:19:09.145Z,12.10
2018-04-22T03:21:37.608Z,12.10
2018-04-22T03:24:06.033Z,12.00
2018-04-22T03:26:34.283Z,12.00
2018-04-22T03:29:02.576Z,12.00
2018-04-22T03:31:31.631Z,12.00
2018-04-22T03:33:59.834Z,12.00
2018-04-22T03:36:28.125Z,12.00
2018-04-22T03:38:56.350Z,11.90
2018-04-22T03:41:25.517Z,12.00
2018-04-22T03:43:54.596Z,12.00
2018-04-22T03:46:22.869Z,11.90
2018-04-22T03:48:51.250Z,11.80
2018-04-22T03:51:19.526Z,11.80
2018-04-22T03:53:49.562Z,11.70
2018-04-22T03:56:17.827Z,11.60
2018-04-22T03:58:46.056Z,11.60
2018-04-22T04:01:14.275Z,11.50
2018-04-22T04:03:42.644Z,11.40
2018-04-22T04:06:10.989Z,11.40
2018-04-22T04:08:39.536Z,11.30
2018-04-22T04:11:08.758Z,11.30
2018-04-22T04:13:36.951Z,11.20
2018-04-22T04:16:05.199Z,11.40
2018-04-22T04:21:46.588Z,11.60
2018-04-22T04:27:41.823Z,11.80
2018-04-22T04:30:10.208Z,11.80
2018-04-22T04:32:38.507Z,11.80
2018-04-22T04:35:06.755Z,11.80
2018-04-22T04:37:35.148Z,11.70
2018-04-22T04:40:03.483Z,11.60
2018-04-22T04:42:32.021Z,11.60
2018-04-22T04:45:00.299Z,11.60
2018-04-22T04:47:30.174Z,11.40
2018-04-22T04:49:58.376Z,11.40
2018-04-22T04:52:26.628Z,11.30
2018-04-22T04:54:54.862Z,11.20
2018-04-22T04:57:23.245Z,11.20
2018-04-22T04:59:51.591Z,11.20
2018-04-22T05:02:21.518Z,11.10
2018-04-22T05:04:50.540Z,11.10
2018-04-22T05:07:19.352Z,11.10
2018-04-22T05:09:47.661Z,11.10
2018-04-22T05:12:17.592Z,11.00
2018-04-22T05:14:46.621Z,10.90
2018-04-22T05:17:15.790Z,10.90
2018-04-22T05:19:44.152Z,10.90
2018-04-22T05:22:12.520Z,11.00
2018-04-22T05:24:41.554Z,11.20
2018-04-22T05:27:09.784Z,11.20
2018-04-22T05:29:38.236Z,11.40
2018-04-22T05:32:06.702Z,11.60
2018-04-22T05:34:35.890Z,12.10
2018-04-22T05:37:04.187Z,12.10
2018-04-22T05:39:33.274Z,12.60
2018-04-22T05:42:02.301Z,12.90
2018-04-22T05:44:31.328Z,13.10
2018-04-22T05:46:59.539Z,13.10
2018-04-22T05:49:27.903Z,13.40
2018-04-22T05:51:56.171Z,13.60
2018-04-22T05:54:24.495Z,13.80
2018-04-22T05:56:52.845Z,13.90
2018-04-22T05:59:21.129Z,13.90
2018-04-22T06:01:49.409Z,13.80
2018-04-22T06:04:17.675Z,13.80
2018-04-22T06:06:48.056Z,14.00
2018-04-22T06:09:17.046Z,14.00
2018-04-22T06:11:45.290Z,14.00
2018-04-22T06:14:13.578Z,14.10
2018-04-22T06:16:42.641Z,14.10
2018-04-22T06:19:10.887Z,14.10
2018-04-22T06:21:39.253Z,14.20
2018-04-22T06:24:08.229Z,14.20
2018-04-22T06:26:36.471Z,14.20
2018-04-22T06:29:05.097Z,14.30
2018-04-22T06:31:34.127Z,14.30
2018-04-22T06:34:02.623Z,14.50
2018-04-22T06:36:30.861Z,14.50
2018-04-22T06:38:59.135Z,14.80
2018-04-22T06:41:27.375Z,14.90
2018-04-22T06:43:55.846Z,15.00
2018-04-22T06:46:25.047Z,15.30
2018-04-22T06:48:53.954Z,15.30
2018-04-22T06:51:22.272Z,15.60
2018-04-22T06:53:51.301Z,16.10
2018-04-22T06:56:19.723Z,16.00
2018-04-22T07:01:30.584Z,16.40
2018-04-22T07:03:59.700Z,16.60
2018-04-22T07:06:28.782Z,17.00
2018-04-22T07:08:57.982Z,16.90
2018-04-22T07:11:26.194Z,17.10
2018-04-22T07:13:55.294Z,17.50
2018-04-22T07:16:24.454Z,17.70
2018-04-22T07:18:52.872Z,17.70
2018-04-22T07:21:21.893Z,18.20
2018-04-22T07:23:51.056Z,18.50
2018-04-22T07:26:19.428Z,18.50
2018-04-22T07:28:48.623Z,18.90
2018-04-22T07:31:16.940Z,18.90
2018-04-22T07:33:47.060Z,19.10
2018-04-22T07:36:16.079Z,18.90
2018-04-22T07:38:44.326Z,18.90
2018-04-22T07:41:13.579Z,18.60
2018-04-22T07:43:41.829Z,18.60
2018-04-22T07:46:10.063Z,18.50
2018-04-22T07:48:39.125Z,19.10
2018-04-22T07:51:07.521Z,19.10
2018-04-22T07:53:36.421Z,19.40
2018-04-22T07:56:04.925Z,19.40
2018-04-22T07:58:34.095Z,19.30
2018-04-22T08:01:03.174Z,19.30
2018-04-22T08:03:31.395Z,19.30
2018-04-22T08:05:59.599Z,19.40
2018-04-22T08:08:27.967Z,19.70
2018-04-22T08:10:57.235Z,19.80
2018-04-22T08:13:25.468Z,19.70
2018-04-22T08:15:54.435Z,19.70
2018-04-22T08:18:22.677Z,19.70
2018-04-22T08:20:50.946Z,19.90
2018-04-22T08:23:19.234Z,20.00
2018-04-22T08:25:47.528Z,20.20
2018-04-22T08:28:15.864Z,20.20
2018-04-22T08:30:47.735Z,20.70
2018-04-22T08:33:16.152Z,20.60
2018-04-22T08:35:44.425Z,20.90
2018-04-22T08:38:12.654Z,21.20
2018-04-22T08:40:40.992Z,21.40
2018-04-22T08:43:10.147Z,21.70
2018-04-22T08:45:40.054Z,21.80
2018-04-22T08:48:08.384Z,21.80
2018-04-22T08:50:37.458Z,22.20
2018-04-22T08:53:05.890Z,22.10
2018-04-22T08:55:34.227Z,22.10
2018-04-22T08:58:02.455Z,22.00
2018-04-22T09:00:30.876Z,22.00
2018-04-22T09:02:59.120Z,22.10
2018-04-22T09:05:28.103Z,22.30
2018-04-22T09:07:57.108Z,22.40
2018-04-22T09:10:25.520Z,22.40
2018-04-22T09:12:53.927Z,22.60
2018-04-22T09:15:22.176Z,22.70
2018-04-22T09:17:50.669Z,22.70
2018-04-22T09:20:18.940Z,22.70
2018-04-22T09:22:47.327Z,22.90
2018-04-22T09:25:16.559Z,23.30
2018-04-22T09:27:44.781Z,23.30
2018-04-22T09:30:13.367Z,23.60
2018-04-22T09:32:41.600Z,23.90
2018-04-22T09:35:10.923Z,24.40
2018-04-22T09:37:39.192Z,24.40
2018-04-22T09:40:08.243Z,24.60
2018-04-22T09:42:36.455Z,24.60
2018-04-22T09:45:04.732Z,24.40
2018-04-22T09:47:32.943Z,24.40
2018-04-22T09:50:01.252Z,24.40
2018-04-22T09:52:29.550Z,24.40
2018-04-22T09:54:58.391Z,24.50
2018-04-22T09:57:26.646Z,24.60
2018-04-22T09:59:55.802Z,24.60
2018-04-22T10:02:29.818Z,24.50
2018-04-22T10:05:12.965Z,24.70
2018-04-22T10:07:42.111Z,24.70
2018-04-22T10:10:10.312Z,24.70
2018-04-22T10:12:38.560Z,24.80
2018-04-22T10:15:06.900Z,24.90
2018-04-22T10:17:36.780Z,25.20
2018-04-22T10:20:05.208Z,25.20
2018-04-22T10:22:34.226Z,25.30
2018-04-22T10:25:02.559Z,25.20
2018-04-22T10:27:31.850Z,25.20
2018-04-22T10:30:00.096Z,25.20
2018-04-22T10:32:28.772Z,25.20
2018-04-22T10:34:56.996Z,25.30
2018-04-22T10:37:25.328Z,25.50
2018-04-22T10:39:53.559Z,25.50
2018-04-22T10:42:22.717Z,25.60
2018-04-22T10:44:51.220Z,25.60
2018-04-22T10:47:19.561Z,25.80
2018-04-22T10:49:47.801Z,25.90
2018-04-22T10:52:16.153Z,26.00
2018-04-22T10:54:44.540Z,26.20
2018-04-22T10:57:13.046Z,26.40
2018-04-22T10:59:41.301Z,26.50
2018-04-22T11:02:09.513Z,26.60
2018-04-22T11:04:38.149Z,26.70
2018-04-22T11:07:07.111Z,26.50
2018-04-22T11:09:35.658Z,26.40
2018-04-22T11:12:04.008Z,26.60
2018-04-22T11:14:32.398Z,26.60
2018-04-22T11:17:00.678Z,26.50
2018-04-22T11:19:28.896Z,26.70
2018-04-22T11:21:57.132Z,27.00
2018-04-22T11:24:25.356Z,27.10
2018-04-22T11:26:53.583Z,27.10
2018-04-22T11:29:21.795Z,27.30
2018-04-22T11:31:50.062Z,27.20
2018-04-22T11:34:18.406Z,27.40
2018-04-22T11:36:46.620Z,27.50
2018-04-22T11:39:15.331Z,27.60
2018-04-22T11:41:43.639Z,27.60
2018-04-22T11:44:11.897Z,27.50
2018-04-22T11:46:40.152Z,27.30
2018-04-22T11:49:09.134Z,27.20
2018-04-22T11:51:37.338Z,27.20
2018-04-22T11:54:06.329Z,27.10
2018-04-22T11:56:35.336Z,27.10
2018-04-22T11:59:04.428Z,27.30
2018-04-22T12:01:32.639Z,27.30
2018-04-22T12:04:00.916Z,27.30
2018-04-22T12:06:29.929Z,27.40
2018-04-22T12:08:58.163Z,27.40
2018-04-22T12:11:27.169Z,27.30
2018-04-22T12:13:55.468Z,27.30
2018-04-22T12:16:24.543Z,27.60
2018-04-22T12:18:52.796Z,27.50
2018-04-22T12:21:21.077Z,27.70
2018-04-22T12:23:50.238Z,28.00
2018-04-22T12:26:18.482Z,28.00
2018-04-22T12:28:47.616Z,28.20
2018-04-22T12:31:17.379Z,28.20
2018-04-22T12:33:48.203Z,28.20
2018-04-22T12:36:17.240Z,28.20
2018-04-22T12:38:45.448Z,28.20
2018-04-22T12:41:14.766Z,28.50
2018-04-22T12:43:42.984Z,28.50
2018-04-22T12:46:11.234Z,28.50
2018-04-22T12:48:40.397Z,28.40
2018-04-22T12:51:08.680Z,28.40
2018-04-22T12:53:36.874Z,27.90
2018-04-22T12:56:05.076Z,27.90
2018-04-22T12:58:33.300Z,28.10
2018-04-22T13:01:01.667Z,28.20
2018-04-22T13:03:29.961Z,28.30
2018-04-22T13:05:58.270Z,28.50
2018-04-22T13:08:26.495Z,28.20
2018-04-22T13:10:55.362Z,28.00
2018-04-22T13:13:24.429Z,28.10
2018-04-22T13:15:52.668Z,28.10
2018-04-22T13:18:20.959Z,28.20
2018-04-22T13:20:49.356Z,28.40
2018-04-22T13:23:17.605Z,28.40
2018-04-22T13:25:46.117Z,28.00
2018-04-22T13:28:15.257Z,27.30
2018-04-22T13:30:44.461Z,27.20
2018-04-22T13:33:13.813Z,27.10
2018-04-22T13:35:43.109Z,27.10
2018-04-22T13:38:11.490Z,27.10
2018-04-22T13:40:39.973Z,27.40
2018-04-22T13:43:08.825Z,27.60
2018-04-22T13:45:37.834Z,27.30
2018-04-22T13:48:06.113Z,27.20
2018-04-22T13:50:34.433Z,27.20
2018-04-22T13:53:02.674Z,27.30
2018-04-22T13:55:30.899Z,27.60
2018-04-22T13:57:59.161Z,28.00
2018-04-22T14:00:27.366Z,28.30
2018-04-22T14:02:56.440Z,28.20
2018-04-22T14:05:24.691Z,28.20
2018-04-22T14:07:53.142Z,26.60
2018-04-22T14:10:22.196Z,24.50
2018-04-22T14:12:50.427Z,24.50
2018-04-22T14:15:18.707Z,24.10
2018-04-22T14:17:46.972Z,24.20
2018-04-22T14:20:15.956Z,24.10
2018-04-22T14:22:44.373Z,24.10
2018-04-22T14:25:12.718Z,24.40
2018-04-22T14:27:41.052Z,24.60
2018-04-22T14:30:09.349Z,24.90
2018-04-22T14:32:37.562Z,24.80
2018-04-22T14:35:06.678Z,24.80
2018-04-22T14:40:06.510Z,25.00
2018-04-22T14:42:34.819Z,25.50
2018-04-22T14:45:14.873Z,25.60
2018-04-22T14:47:43.160Z,25.10
2018-04-22T14:50:11.767Z,25.20
2018-04-22T14:52:40.111Z,25.30
2018-04-22T14:55:08.392Z,25.20
2018-04-22T14:57:36.678Z,25.60
2018-04-22T15:00:05.720Z,26.00
2018-04-22T15:02:34.154Z,26.00
2018-04-22T15:05:02.359Z,26.10
2018-04-22T15:07:31.551Z,25.80
2018-04-22T15:10:00.156Z,25.80
2018-04-22T15:12:28.402Z,26.20
2018-04-22T15:14:56.715Z,26.70
2018-04-22T15:17:25.767Z,27.10
2018-04-22T15:19:54.017Z,27.10
2018-04-22T15:22:24.375Z,27.10
2018-04-22T15:24:52.749Z,26.90
2018-04-22T15:27:21.139Z,27.10
2018-04-22T15:29:49.375Z,27.10
2018-04-22T15:32:17.590Z,27.00
2018-04-22T15:34:46.587Z,27.20
2018-04-22T15:37:15.322Z,27.00
2018-04-22T15:39:44.470Z,26.00
2018-04-22T15:42:13.770Z,26.00
2018-04-22T15:44:42.186Z,25.80
2018-04-22T15:47:10.532Z,25.90
2018-04-22T15:49:38.920Z,25.60
2018-04-22T15:52:07.207Z,25.80
2018-04-22T15:54:35.431Z,26.00
2018-04-22T15:57:04.562Z,26.20
2018-04-22T15:59:32.821Z,25.90
2018-04-22T16:02:01.061Z,26.20
2018-04-22T16:04:30.997Z,26.80
2018-04-22T16:07:00.238Z,26.90
2018-04-22T16:09:28.490Z,26.90
2018-04-22T16:11:57.366Z,26.80
2018-04-22T16:14:25.636Z,26.70
2018-04-22T16:16:53.830Z,26.60
2018-04-22T16:19:22.791Z,26.40
2018-04-22T16:21:51.004Z,26.40
2018-04-22T16:24:19.285Z,26.20
2018-04-22T16:26:47.534Z,26.20
2018-04-22T16:29:16.718Z,26.20
2018-04-22T16:31:46.465Z,26.10
2018-04-22T16:34:16.127Z,26.10
2018-04-22T16:36:44.505Z,26.10
2018-04-22T16:39:13.349Z,26.20
2018-04-22T16:41:43.769Z,26.00
2018-04-22T16:44:13.637Z,25.90
2018-04-22T16:46:42.733Z,25.70
2018-04-22T16:49:10.993Z,25.70
2018-04-22T16:51:39.353Z,25.40
2018-04-22T16:54:08.407Z,24.90
2018-04-22T16:56:37.542Z,24.70
2018-04-22T16:59:06.170Z,24.70
2018-04-22T17:01:34.551Z,24.50
2018-04-22T17:04:02.939Z,24.30
2018-04-22T17:06:31.102Z,24.30
2018-04-22T17:08:59.397Z,24.10
2018-04-22T17:11:27.650Z,24.00
2018-04-22T17:13:56.078Z,23.90
2018-04-22T17:16:25.086Z,23.70
2018-04-22T17:18:53.377Z,23.70
2018-04-22T17:21:22.417Z,23.50
2018-04-22T17:23:51.204Z,23.50
2018-04-22T17:26:19.460Z,23.40
2018-04-22T17:28:47.674Z,23.30
2018-04-22T17:31:16.970Z,23.10
2018-04-22T17:33:45.945Z,23.10
2018-04-22T17:36:14.448Z,23.00
2018-04-22T17:38:42.817Z,22.90
2018-04-22T17:41:11.893Z,22.90
2018-04-22T17:43:40.965Z,22.70
2018-04-22T17:46:09.177Z,22.70
2018-04-22T17:48:37.405Z,22.60
2018-04-22T17:51:06.560Z,22.40
2018-04-22T17:53:34.787Z,22.30
2018-04-22T17:56:03.353Z,22.20
2018-04-22T17:58:31.593Z,22.00
2018-04-22T18:01:00.604Z,21.90
2018-04-22T18:03:28.873Z,21.80
2018-04-22T18:05:57.103Z,21.70
2018-04-22T18:08:26.173Z,21.40
2018-04-22T18:10:55.511Z,21.40
2018-04-22T18:13:23.871Z,21.30
2018-04-22T18:15:52.379Z,21.20
2018-04-22T18:18:20.630Z,21.10
2018-04-22T18:20:48.886Z,21.00
2018-04-22T18:23:17.996Z,20.90
2018-04-22T18:25:46.196Z,20.80
2018-04-22T18:28:15.167Z,20.60
2018-04-22T18:30:43.378Z,20.50
2018-04-22T18:33:12.371Z,20.40
2018-04-22T18:35:41.477Z,20.20
2018-04-22T18:38:09.747Z,20.20
2018-04-22T18:40:37.981Z,20.10
2018-04-22T18:43:07.017Z,20.10
2018-04-22T18:45:36.680Z,20.00
2018-04-22T18:48:05.714Z,19.90
2018-04-22T18:50:34.802Z,19.90
2018-04-22T18:53:03.075Z,19.70
2018-04-22T18:55:31.408Z,19.70
2018-04-22T18:57:59.648Z,19.60
2018-04-22T19:00:28.893Z,19.50
2018-04-22T19:02:59.788Z,19.50
2018-04-22T19:05:28.862Z,19.50
2018-04-22T19:07:57.063Z,19.50
2018-04-22T19:10:26.102Z,19.30
2018-04-22T19:12:54.380Z,19.30
2018-04-22T19:15:22.619Z,19.40
2018-04-22T19:18:02.976Z,19.30
2018-04-22T19:20:32.139Z,19.20
2018-04-22T19:23:00.475Z,19.20
2018-04-22T19:25:29.491Z,19.10
2018-04-22T19:27:57.766Z,19.10
2018-04-22T19:30:26.178Z,19.00
2018-04-22T19:32:55.251Z,18.90
2018-04-22T19:35:23.477Z,18.90
2018-04-22T19:37:52.550Z,18.80
2018-04-22T19:40:20.948Z,18.80
2018-04-22T19:42:55.163Z,18.80
2018-04-22T19:45:48.655Z,18.80
2018-04-22T19:48:22.774Z,18.80
2018-04-22T19:50:54.555Z,18.70
2018-04-22T19:53:40.061Z,18.70
2018-04-22T19:56:08.687Z,18.70
2018-04-22T19:58:37.111Z,18.70
2018-04-22T20:01:05.442Z,18.60
2018-04-22T20:03:33.806Z,18.60
2018-04-22T20:06:03.873Z,18.60
2018-04-22T20:08:32.356Z,18.60
2018-04-22T20:11:01.371Z,18.40
2018-04-22T20:13:29.780Z,18.40
2018-04-22T20:16:01.547Z,18.30
2018-04-22T20:18:34.352Z,18.30
2018-04-22T20:21:08.868Z,18.20
2018-04-22T20:23:39.446Z,18.20
2018-04-22T20:26:07.969Z,18.10
2018-04-22T20:28:36.420Z,18.10
2018-04-22T20:31:04.717Z,18.10
2018-04-22T20:33:33.021Z,18.00
2018-04-22T20:36:02.829Z,18.00
2018-04-22T20:38:52.784Z,17.90
2018-04-22T20:41:21.007Z,18.00
2018-04-22T20:43:50.259Z,17.80
2018-04-22T20:46:18.527Z,17.80
2018-04-22T20:48:46.773Z,17.80
2018-04-22T20:51:15.033Z,17.80
2018-04-22T20:53:44.149Z,17.70
2018-04-22T20:56:13.149Z,17.60
2018-04-22T20:58:42.304Z,17.60
2018-04-22T21:01:10.617Z,17.60
2018-04-22T21:03:39.651Z,17.60
2018-04-22T21:06:07.983Z,17.60
2018-04-22T21:08:36.272Z,17.50
2018-04-22T21:11:04.544Z,17.50
2018-04-22T21:13:33.569Z,17.40
2018-04-22T21:16:01.878Z,17.40
2018-04-22T21:18:30.275Z,17.40
2018-04-22T21:20:58.523Z,17.40
2018-04-22T21:23:26.760Z,17.30
2018-04-22T21:25:55.826Z,17.20
2018-04-22T21:28:24.159Z,17.20
2018-04-22T21:30:52.577Z,17.20
2018-04-22T21:33:20.798Z,17.10
2018-04-22T21:35:49.082Z,17.00
2018-04-22T21:38:17.430Z,17.00
2018-04-22T21:40:45.662Z,16.90
2018-04-22T21:43:13.972Z,16.90
2018-04-22T21:45:42.180Z,16.80
2018-04-22T21:48:11.563Z,16.50
2018-04-22T21:50:41.368Z,16.40
2018-04-22T21:53:10.541Z,16.40
2018-04-22T21:55:38.816Z,16.40
2018-04-22T21:58:07.020Z,16.30
2018-04-22T22:00:35.290Z,16.20
2018-04-22T22:03:03.513Z,16.10
2018-04-22T22:05:31.782Z,16.10
2018-04-22T22:08:00.874Z,16.00
2018-04-22T22:10:29.052Z,16.00
2018-04-22T22:12:58.061Z,15.80
2018-04-22T22:15:27.025Z,15.80
2018-04-22T22:17:55.298Z,15.80
2018-04-22T22:20:24.457Z,15.80
2018-04-22T22:22:53.599Z,15.70
2018-04-22T22:25:23.504Z,15.70
2018-04-22T22:27:51.966Z,15.60
2018-04-22T22:30:21.292Z,15.50
2018-04-22T22:32:49.492Z,15.50
2018-04-22T22:35:17.694Z,15.40
2018-04-22T22:37:46.031Z,15.40
2018-04-22T22:40:14.259Z,15.30
2018-04-22T22:42:43.285Z,15.20
2018-04-22T22:45:11.518Z,15.10
2018-04-22T22:47:40.673Z,15.10
2018-04-22T22:50:09.462Z,15.00
2018-04-22T22:52:37.819Z,15.00
2018-04-22T22:55:06.132Z,15.10
2018-04-22T22:57:34.433Z,15.00
2018-04-22T23:00:02.641Z,15.00
2018-04-22T23:02:31.634Z,14.90
2018-04-22T23:04:59.881Z,14.90
2018-04-22T23:07:28.089Z,14.80
2018-04-22T23:09:57.842Z,14.60
2018-04-22T23:12:26.129Z,14.50
2018-04-22T23:14:54.392Z,14.60
2018-04-22T23:17:22.756Z,14.50
2018-04-22T23:19:51.108Z,14.50
2018-04-22T23:22:20.166Z,14.40
2018-04-22T23:24:49.176Z,14.40
2018-04-22T23:27:17.544Z,14.50
2018-04-22T23:29:45.728Z,14.50
2018-04-22T23:32:13.948Z,14.50
2018-04-22T23:34:43.048Z,14.40
2018-04-22T23:37:12.010Z,14.40
2018-04-22T23:39:40.213Z,14.40
2018-04-22T23:42:08.437Z,14.30
2018-04-22T23:44:36.628Z,14.20
2018-04-22T23:47:04.996Z,14.30
2018-04-22T23:49:33.243Z,14.30
2018-04-22T23:52:01.821Z,14.10
2018-04-22T23:54:30.051Z,14.00
2018-04-22T23:56:59.223Z,13.90
2018-04-22T23:59:27.445Z,13.90
